sensor_id;sensor_type;location;lat;lon;timestamp;P1;durP1;ratioP1;P2;durP2;ratioP2
44228;SDS011;29904;51.058;5.378;2023-07-08T00:00:23;3.78;;;2.50;;
44228;SDS011;29904;51.058;5.378;2023-07-08T00:02:49;5.10;;;2.95;;
44228;SDS011;29904;51.058;5.378;2023-07-08T00:05:17;5.05;;;2.35;;
44228;SDS011;29904;51.058;5.378;2023-07-08T00:07:45;4.10;;;2.85;;
44228;SDS011;29904;51.058;5.378;2023-07-08T00:10:12;5.40;;;2.80;;
44228;SDS011;29904;51.058;5.378;2023-07-08T00:12:40;4.10;;;2.70;;
44228;SDS011;29904;51.058;5.378;2023-07-08T00:15:09;4.63;;;2.85;;
44228;SDS011;29904;51.058;5.378;2023-07-08T00:17:36;6.10;;;3.10;;
44228;SDS011;29904;51.058;5.378;2023-07-08T00:20:12;4.72;;;2.70;;
44228;SDS011;29904;51.058;5.378;2023-07-08T00:22:41;5.32;;;2.50;;
44228;SDS011;29904;51.058;5.378;2023-07-08T00:25:07;4.63;;;2.95;;
44228;SDS011;29904;51.058;5.378;2023-07-08T00:27:33;4.77;;;2.60;;
44228;SDS011;29904;51.058;5.378;2023-07-08T00:30:01;3.38;;;2.38;;
44228;SDS011;29904;51.058;5.378;2023-07-08T00:32:27;5.00;;;2.45;;
44228;SDS011;29904;51.058;5.378;2023-07-08T00:34:52;5.07;;;2.73;;
44228;SDS011;29904;51.058;5.378;2023-07-08T00:37:18;5.43;;;2.72;;
44228;SDS011;29904;51.058;5.378;2023-07-08T00:39:44;4.72;;;2.40;;
44228;SDS011;29904;51.058;5.378;2023-07-08T00:42:12;5.07;;;2.67;;
44228;SDS011;29904;51.058;5.378;2023-07-08T00:44:43;5.20;;;2.87;;
44228;SDS011;29904;51.058;5.378;2023-07-08T00:47:09;4.63;;;2.90;;
44228;SDS011;29904;51.058;5.378;2023-07-08T00:49:40;4.77;;;3.03;;
44228;SDS011;29904;51.058;5.378;2023-07-08T00:52:26;4.35;;;2.60;;
44228;SDS011;29904;51.058;5.378;2023-07-08T00:54:54;4.88;;;2.63;;
44228;SDS011;29904;51.058;5.378;2023-07-08T00:57:31;4.45;;;2.80;;
44228;SDS011;29904;51.058;5.378;2023-07-08T01:00:07;4.13;;;2.42;;
44228;SDS011;29904;51.058;5.378;2023-07-08T01:02:36;4.55;;;2.72;;
44228;SDS011;29904;51.058;5.378;2023-07-08T01:05:17;4.45;;;2.80;;
44228;SDS011;29904;51.058;5.378;2023-07-08T01:07:49;5.53;;;2.70;;
44228;SDS011;29904;51.058;5.378;2023-07-08T01:10:20;5.13;;;2.87;;
44228;SDS011;29904;51.058;5.378;2023-07-08T01:12:58;4.95;;;2.80;;
44228;SDS011;29904;51.058;5.378;2023-07-08T01:15:31;6.40;;;2.83;;
44228;SDS011;29904;51.058;5.378;2023-07-08T01:18:02;4.53;;;2.67;;
44228;SDS011;29904;51.058;5.378;2023-07-08T01:20:28;5.38;;;2.65;;
44228;SDS011;29904;51.058;5.378;2023-07-08T01:22:54;3.73;;;2.50;;
44228;SDS011;29904;51.058;5.378;2023-07-08T01:25:19;4.15;;;2.60;;
44228;SDS011;29904;51.058;5.378;2023-07-08T01:27:48;4.97;;;2.63;;
44228;SDS011;29904;51.058;5.378;2023-07-08T01:30:18;4.72;;;2.30;;
44228;SDS011;29904;51.058;5.378;2023-07-08T01:32:48;4.78;;;2.90;;
44228;SDS011;29904;51.058;5.378;2023-07-08T01:35:16;4.80;;;2.70;;
44228;SDS011;29904;51.058;5.378;2023-07-08T01:37:44;4.73;;;2.70;;
44228;SDS011;29904;51.058;5.378;2023-07-08T01:42:49;4.00;;;2.70;;
44228;SDS011;29904;51.058;5.378;2023-07-08T01:45:18;4.47;;;2.75;;
44228;SDS011;29904;51.058;5.378;2023-07-08T01:47:50;5.97;;;2.85;;
44228;SDS011;29904;51.058;5.378;2023-07-08T01:50:23;6.18;;;3.10;;
44228;SDS011;29904;51.058;5.378;2023-07-08T01:52:51;5.00;;;2.75;;
44228;SDS011;29904;51.058;5.378;2023-07-08T01:55:22;5.30;;;2.83;;
44228;SDS011;29904;51.058;5.378;2023-07-08T01:57:52;4.70;;;2.95;;
44228;SDS011;29904;51.058;5.378;2023-07-08T02:00:20;5.32;;;2.80;;
44228;SDS011;29904;51.058;5.378;2023-07-08T02:02:47;5.70;;;2.90;;
44228;SDS011;29904;51.058;5.378;2023-07-08T02:05:13;5.38;;;3.03;;
44228;SDS011;29904;51.058;5.378;2023-07-08T02:07:39;4.40;;;2.70;;
44228;SDS011;29904;51.058;5.378;2023-07-08T02:10:05;5.75;;;3.03;;
44228;SDS011;29904;51.058;5.378;2023-07-08T02:12:31;5.50;;;2.70;;
44228;SDS011;29904;51.058;5.378;2023-07-08T02:14:59;6.38;;;2.97;;
44228;SDS011;29904;51.058;5.378;2023-07-08T02:17:26;4.85;;;2.95;;
44228;SDS011;29904;51.058;5.378;2023-07-08T02:19:54;4.68;;;2.90;;
44228;SDS011;29904;51.058;5.378;2023-07-08T02:22:22;5.43;;;2.88;;
44228;SDS011;29904;51.058;5.378;2023-07-08T02:24:48;4.28;;;2.95;;
44228;SDS011;29904;51.058;5.378;2023-07-08T02:27:14;5.40;;;2.93;;
44228;SDS011;29904;51.058;5.378;2023-07-08T02:29:40;5.80;;;3.13;;
44228;SDS011;29904;51.058;5.378;2023-07-08T02:32:06;5.68;;;3.33;;
44228;SDS011;29904;51.058;5.378;2023-07-08T02:34:37;6.07;;;3.22;;
44228;SDS011;29904;51.058;5.378;2023-07-08T02:37:06;6.30;;;3.10;;
44228;SDS011;29904;51.058;5.378;2023-07-08T02:39:32;4.57;;;3.00;;
44228;SDS011;29904;51.058;5.378;2023-07-08T02:41:58;5.05;;;2.90;;
44228;SDS011;29904;51.058;5.378;2023-07-08T02:44:27;4.93;;;3.20;;
44228;SDS011;29904;51.058;5.378;2023-07-08T02:46:53;5.45;;;3.08;;
44228;SDS011;29904;51.058;5.378;2023-07-08T02:49:18;4.50;;;2.60;;
44228;SDS011;29904;51.058;5.378;2023-07-08T02:51:44;5.43;;;2.60;;
44228;SDS011;29904;51.058;5.378;2023-07-08T02:54:10;5.47;;;3.00;;
44228;SDS011;29904;51.058;5.378;2023-07-08T02:56:36;4.15;;;2.72;;
44228;SDS011;29904;51.058;5.378;2023-07-08T02:59:05;5.53;;;2.88;;
44228;SDS011;29904;51.058;5.378;2023-07-08T03:01:31;5.13;;;3.00;;
44228;SDS011;29904;51.058;5.378;2023-07-08T03:03:59;4.85;;;2.80;;
44228;SDS011;29904;51.058;5.378;2023-07-08T03:06:25;4.35;;;2.42;;
44228;SDS011;29904;51.058;5.378;2023-07-08T03:08:51;5.78;;;2.97;;
44228;SDS011;29904;51.058;5.378;2023-07-08T03:11:16;5.53;;;3.03;;
44228;SDS011;29904;51.058;5.378;2023-07-08T03:13:42;5.07;;;2.85;;
44228;SDS011;29904;51.058;5.378;2023-07-08T03:16:08;4.77;;;2.90;;
44228;SDS011;29904;51.058;5.378;2023-07-08T03:18:37;4.03;;;2.65;;
44228;SDS011;29904;51.058;5.378;2023-07-08T03:21:11;4.38;;;2.95;;
44228;SDS011;29904;51.058;5.378;2023-07-08T03:23:38;5.60;;;2.97;;
44228;SDS011;29904;51.058;5.378;2023-07-08T03:26:04;4.38;;;2.97;;
44228;SDS011;29904;51.058;5.378;2023-07-08T03:28:31;4.30;;;2.80;;
44228;SDS011;29904;51.058;5.378;2023-07-08T03:30:57;4.38;;;2.80;;
44228;SDS011;29904;51.058;5.378;2023-07-08T03:33:23;6.20;;;2.90;;
44228;SDS011;29904;51.058;5.378;2023-07-08T03:35:50;4.15;;;2.80;;
44228;SDS011;29904;51.058;5.378;2023-07-08T03:38:16;4.73;;;2.80;;
44228;SDS011;29904;51.058;5.378;2023-07-08T03:40:42;4.70;;;2.97;;
44228;SDS011;29904;51.058;5.378;2023-07-08T03:43:10;5.60;;;2.97;;
44228;SDS011;29904;51.058;5.378;2023-07-08T03:45:35;6.13;;;3.47;;
44228;SDS011;29904;51.058;5.378;2023-07-08T03:48:01;7.43;;;3.60;;
44228;SDS011;29904;51.058;5.378;2023-07-08T03:50:28;5.87;;;3.83;;
44228;SDS011;29904;51.058;5.378;2023-07-08T03:52:54;5.33;;;4.10;;
44228;SDS011;29904;51.058;5.378;2023-07-08T03:55:20;6.03;;;3.60;;
44228;SDS011;29904;51.058;5.378;2023-07-08T03:57:47;5.07;;;3.43;;
44228;SDS011;29904;51.058;5.378;2023-07-08T04:00:13;5.27;;;3.10;;
44228;SDS011;29904;51.058;5.378;2023-07-08T04:02:39;6.28;;;3.28;;
44228;SDS011;29904;51.058;5.378;2023-07-08T04:05:05;4.85;;;2.88;;
44228;SDS011;29904;51.058;5.378;2023-07-08T04:07:32;5.13;;;3.13;;
44228;SDS011;29904;51.058;5.378;2023-07-08T04:09:58;6.05;;;3.40;;
44228;SDS011;29904;51.058;5.378;2023-07-08T04:12:27;5.07;;;3.22;;
44228;SDS011;29904;51.058;5.378;2023-07-08T04:14:52;5.95;;;3.28;;
44228;SDS011;29904;51.058;5.378;2023-07-08T04:17:18;5.43;;;3.17;;
44228;SDS011;29904;51.058;5.378;2023-07-08T04:19:44;5.80;;;3.30;;
44228;SDS011;29904;51.058;5.378;2023-07-08T04:22:10;5.18;;;3.42;;
44228;SDS011;29904;51.058;5.378;2023-07-08T04:24:36;5.90;;;3.60;;
44228;SDS011;29904;51.058;5.378;2023-07-08T04:27:02;6.05;;;3.70;;
44228;SDS011;29904;51.058;5.378;2023-07-08T04:29:28;5.30;;;3.47;;
44228;SDS011;29904;51.058;5.378;2023-07-08T04:31:54;6.25;;;3.40;;
44228;SDS011;29904;51.058;5.378;2023-07-08T04:34:22;4.55;;;3.10;;
44228;SDS011;29904;51.058;5.378;2023-07-08T04:36:47;5.53;;;3.67;;
44228;SDS011;29904;51.058;5.378;2023-07-08T04:39:13;5.80;;;3.42;;
44228;SDS011;29904;51.058;5.378;2023-07-08T04:41:41;5.53;;;3.30;;
44228;SDS011;29904;51.058;5.378;2023-07-08T04:44:09;5.18;;;3.53;;
44228;SDS011;29904;51.058;5.378;2023-07-08T04:46:46;5.50;;;3.35;;
44228;SDS011;29904;51.058;5.378;2023-07-08T04:49:23;5.50;;;3.78;;
44228;SDS011;29904;51.058;5.378;2023-07-08T04:51:50;5.90;;;3.67;;
44228;SDS011;29904;51.058;5.378;2023-07-08T04:54:16;5.40;;;3.75;;
44228;SDS011;29904;51.058;5.378;2023-07-08T04:56:43;6.97;;;3.87;;
44228;SDS011;29904;51.058;5.378;2023-07-08T04:59:13;5.83;;;4.00;;
44228;SDS011;29904;51.058;5.378;2023-07-08T05:01:40;6.75;;;4.00;;
44228;SDS011;29904;51.058;5.378;2023-07-08T05:04:09;6.63;;;3.88;;
44228;SDS011;29904;51.058;5.378;2023-07-08T05:06:39;6.70;;;4.00;;
44228;SDS011;29904;51.058;5.378;2023-07-08T05:09:06;7.97;;;3.70;;
44228;SDS011;29904;51.058;5.378;2023-07-08T05:11:33;5.97;;;3.33;;
44228;SDS011;29904;51.058;5.378;2023-07-08T05:14:01;5.80;;;3.90;;
44228;SDS011;29904;51.058;5.378;2023-07-08T05:16:28;6.15;;;3.55;;
44228;SDS011;29904;51.058;5.378;2023-07-08T05:18:54;7.20;;;3.75;;
44228;SDS011;29904;51.058;5.378;2023-07-08T05:21:20;6.70;;;3.80;;
44228;SDS011;29904;51.058;5.378;2023-07-08T05:23:46;6.63;;;3.72;;
44228;SDS011;29904;51.058;5.378;2023-07-08T05:26:16;6.28;;;3.58;;
44228;SDS011;29904;51.058;5.378;2023-07-08T05:28:42;6.07;;;3.40;;
44228;SDS011;29904;51.058;5.378;2023-07-08T05:31:08;6.17;;;3.73;;
44228;SDS011;29904;51.058;5.378;2023-07-08T05:33:34;6.47;;;3.60;;
44228;SDS011;29904;51.058;5.378;2023-07-08T05:36:02;5.90;;;3.30;;
44228;SDS011;29904;51.058;5.378;2023-07-08T05:38:27;7.28;;;3.80;;
44228;SDS011;29904;51.058;5.378;2023-07-08T05:40:55;5.60;;;3.57;;
44228;SDS011;29904;51.058;5.378;2023-07-08T05:43:22;6.03;;;3.95;;
44228;SDS011;29904;51.058;5.378;2023-07-08T05:45:49;6.88;;;4.05;;
44228;SDS011;29904;51.058;5.378;2023-07-08T05:48:15;6.45;;;3.63;;
44228;SDS011;29904;51.058;5.378;2023-07-08T05:50:44;7.60;;;3.92;;
44228;SDS011;29904;51.058;5.378;2023-07-08T05:53:11;7.43;;;4.10;;
44228;SDS011;29904;51.058;5.378;2023-07-08T05:55:37;8.70;;;3.95;;
44228;SDS011;29904;51.058;5.378;2023-07-08T05:58:07;6.00;;;3.85;;
44228;SDS011;29904;51.058;5.378;2023-07-08T06:00:33;6.95;;;4.28;;
44228;SDS011;29904;51.058;5.378;2023-07-08T06:02:59;7.50;;;3.90;;
44228;SDS011;29904;51.058;5.378;2023-07-08T06:05:25;7.50;;;3.92;;
44228;SDS011;29904;51.058;5.378;2023-07-08T06:07:51;7.03;;;4.30;;
44228;SDS011;29904;51.058;5.378;2023-07-08T06:10:16;7.35;;;4.05;;
44228;SDS011;29904;51.058;5.378;2023-07-08T06:12:42;6.97;;;4.03;;
44228;SDS011;29904;51.058;5.378;2023-07-08T06:15:08;7.50;;;3.90;;
44228;SDS011;29904;51.058;5.378;2023-07-08T06:17:34;7.78;;;4.22;;
44228;SDS011;29904;51.058;5.378;2023-07-08T06:20:00;7.45;;;4.00;;
44228;SDS011;29904;51.058;5.378;2023-07-08T06:22:27;6.70;;;3.97;;
44228;SDS011;29904;51.058;5.378;2023-07-08T06:24:52;7.85;;;4.22;;
44228;SDS011;29904;51.058;5.378;2023-07-08T06:27:18;8.20;;;4.77;;
44228;SDS011;29904;51.058;5.378;2023-07-08T06:29:44;6.78;;;4.20;;
44228;SDS011;29904;51.058;5.378;2023-07-08T06:32:10;7.57;;;4.38;;
44228;SDS011;29904;51.058;5.378;2023-07-08T06:34:35;8.47;;;4.50;;
44228;SDS011;29904;51.058;5.378;2023-07-08T06:37:01;9.18;;;5.03;;
44228;SDS011;29904;51.058;5.378;2023-07-08T06:39:27;9.10;;;5.00;;
44228;SDS011;29904;51.058;5.378;2023-07-08T06:41:52;8.02;;;4.63;;
44228;SDS011;29904;51.058;5.378;2023-07-08T06:44:18;7.07;;;4.20;;
44228;SDS011;29904;51.058;5.378;2023-07-08T06:46:44;8.77;;;4.82;;
44228;SDS011;29904;51.058;5.378;2023-07-08T06:49:09;10.10;;;4.73;;
44228;SDS011;29904;51.058;5.378;2023-07-08T06:51:37;7.95;;;4.00;;
44228;SDS011;29904;51.058;5.378;2023-07-08T06:54:03;8.00;;;4.65;;
44228;SDS011;29904;51.058;5.378;2023-07-08T06:56:36;10.43;;;4.70;;
44228;SDS011;29904;51.058;5.378;2023-07-08T06:59:03;8.13;;;4.50;;
44228;SDS011;29904;51.058;5.378;2023-07-08T07:01:29;6.25;;;4.38;;
44228;SDS011;29904;51.058;5.378;2023-07-08T07:03:55;10.95;;;5.35;;
44228;SDS011;29904;51.058;5.378;2023-07-08T07:06:21;8.93;;;4.70;;
44228;SDS011;29904;51.058;5.378;2023-07-08T07:08:47;8.27;;;4.90;;
44228;SDS011;29904;51.058;5.378;2023-07-08T07:11:12;10.50;;;4.70;;
44228;SDS011;29904;51.058;5.378;2023-07-08T07:13:38;7.95;;;4.40;;
44228;SDS011;29904;51.058;5.378;2023-07-08T07:16:04;7.27;;;4.70;;
44228;SDS011;29904;51.058;5.378;2023-07-08T07:18:32;8.25;;;4.55;;
44228;SDS011;29904;51.058;5.378;2023-07-08T07:20:58;8.57;;;4.27;;
44228;SDS011;29904;51.058;5.378;2023-07-08T07:23:24;8.73;;;4.82;;
44228;SDS011;29904;51.058;5.378;2023-07-08T07:25:50;6.20;;;4.47;;
44228;SDS011;29904;51.058;5.378;2023-07-08T07:28:16;6.63;;;4.10;;
44228;SDS011;29904;51.058;5.378;2023-07-08T07:30:46;8.25;;;4.47;;
44228;SDS011;29904;51.058;5.378;2023-07-08T07:33:20;6.93;;;4.35;;
44228;SDS011;29904;51.058;5.378;2023-07-08T07:35:46;9.18;;;5.15;;
44228;SDS011;29904;51.058;5.378;2023-07-08T07:38:13;10.77;;;5.20;;
44228;SDS011;29904;51.058;5.378;2023-07-08T07:40:40;8.75;;;5.07;;
44228;SDS011;29904;51.058;5.378;2023-07-08T07:43:06;7.55;;;4.80;;
44228;SDS011;29904;51.058;5.378;2023-07-08T07:45:34;8.65;;;4.78;;
44228;SDS011;29904;51.058;5.378;2023-07-08T07:48:00;7.97;;;4.60;;
44228;SDS011;29904;51.058;5.378;2023-07-08T07:50:27;8.60;;;5.07;;
44228;SDS011;29904;51.058;5.378;2023-07-08T07:52:53;8.80;;;5.38;;
44228;SDS011;29904;51.058;5.378;2023-07-08T07:55:20;9.00;;;5.10;;
44228;SDS011;29904;51.058;5.378;2023-07-08T07:57:46;8.50;;;5.03;;
44228;SDS011;29904;51.058;5.378;2023-07-08T08:00:12;9.10;;;5.15;;
44228;SDS011;29904;51.058;5.378;2023-07-08T08:02:39;9.02;;;5.38;;
44228;SDS011;29904;51.058;5.378;2023-07-08T08:05:05;8.75;;;5.03;;
44228;SDS011;29904;51.058;5.378;2023-07-08T08:07:31;8.63;;;5.15;;
44228;SDS011;29904;51.058;5.378;2023-07-08T08:09:57;9.27;;;5.40;;
44228;SDS011;29904;51.058;5.378;2023-07-08T08:12:23;10.03;;;5.50;;
44228;SDS011;29904;51.058;5.378;2023-07-08T08:14:51;9.47;;;5.60;;
44228;SDS011;29904;51.058;5.378;2023-07-08T08:17:16;11.40;;;5.80;;
44228;SDS011;29904;51.058;5.378;2023-07-08T08:19:42;7.57;;;5.17;;
44228;SDS011;29904;51.058;5.378;2023-07-08T08:22:08;10.60;;;4.97;;
44228;SDS011;29904;51.058;5.378;2023-07-08T08:24:34;8.43;;;5.38;;
44228;SDS011;29904;51.058;5.378;2023-07-08T08:26:59;9.07;;;5.55;;
44228;SDS011;29904;51.058;5.378;2023-07-08T08:29:27;7.95;;;5.05;;
44228;SDS011;29904;51.058;5.378;2023-07-08T08:31:53;7.83;;;4.70;;
44228;SDS011;29904;51.058;5.378;2023-07-08T08:34:19;7.13;;;4.85;;
44228;SDS011;29904;51.058;5.378;2023-07-08T08:36:45;8.45;;;5.20;;
44228;SDS011;29904;51.058;5.378;2023-07-08T08:39:11;8.80;;;5.43;;
44228;SDS011;29904;51.058;5.378;2023-07-08T08:41:37;8.47;;;5.00;;
44228;SDS011;29904;51.058;5.378;2023-07-08T08:44:08;8.90;;;5.00;;
44228;SDS011;29904;51.058;5.378;2023-07-08T08:49:40;7.78;;;5.05;;
44228;SDS011;29904;51.058;5.378;2023-07-08T08:52:10;7.45;;;4.90;;
44228;SDS011;29904;51.058;5.378;2023-07-08T08:54:38;8.65;;;5.35;;
44228;SDS011;29904;51.058;5.378;2023-07-08T08:59:55;7.47;;;5.07;;
44228;SDS011;29904;51.058;5.378;2023-07-08T09:02:30;8.05;;;4.95;;
44228;SDS011;29904;51.058;5.378;2023-07-08T09:05:16;7.63;;;4.63;;
44228;SDS011;29904;51.058;5.378;2023-07-08T09:13:32;7.25;;;4.97;;
44228;SDS011;29904;51.058;5.378;2023-07-08T09:16:10;9.48;;;6.07;;
44228;SDS011;29904;51.058;5.378;2023-07-08T09:19:03;9.35;;;5.13;;
44228;SDS011;29904;51.058;5.378;2023-07-08T09:24:29;9.38;;;5.97;;
44228;SDS011;29904;51.058;5.378;2023-07-08T09:27:05;9.75;;;5.43;;
44228;SDS011;29904;51.058;5.378;2023-07-08T09:29:31;7.50;;;5.20;;
44228;SDS011;29904;51.058;5.378;2023-07-08T09:32:01;8.10;;;5.50;;
44228;SDS011;29904;51.058;5.378;2023-07-08T09:34:51;6.90;;;4.90;;
44228;SDS011;29904;51.058;5.378;2023-07-08T09:37:26;8.93;;;5.32;;
44228;SDS011;29904;51.058;5.378;2023-07-08T09:39:54;8.27;;;5.22;;
44228;SDS011;29904;51.058;5.378;2023-07-08T09:42:22;8.80;;;4.85;;
44228;SDS011;29904;51.058;5.378;2023-07-08T09:45:10;7.40;;;4.63;;
44228;SDS011;29904;51.058;5.378;2023-07-08T09:47:38;8.15;;;5.03;;
44228;SDS011;29904;51.058;5.378;2023-07-08T09:52:46;7.50;;;4.87;;
44228;SDS011;29904;51.058;5.378;2023-07-08T09:55:13;9.27;;;4.95;;
44228;SDS011;29904;51.058;5.378;2023-07-08T09:57:39;8.98;;;5.40;;
44228;SDS011;29904;51.058;5.378;2023-07-08T10:00:10;7.40;;;4.63;;
44228;SDS011;29904;51.058;5.378;2023-07-08T10:02:40;9.38;;;5.53;;
44228;SDS011;29904;51.058;5.378;2023-07-08T10:05:14;7.50;;;5.13;;
44228;SDS011;29904;51.058;5.378;2023-07-08T10:07:44;8.05;;;5.13;;
44228;SDS011;29904;51.058;5.378;2023-07-08T10:10:12;10.18;;;5.70;;
44228;SDS011;29904;51.058;5.378;2023-07-08T10:12:58;8.23;;;5.25;;
44228;SDS011;29904;51.058;5.378;2023-07-08T10:15:55;6.70;;;5.18;;
44228;SDS011;29904;51.058;5.378;2023-07-08T10:18:34;9.82;;;5.63;;
44228;SDS011;29904;51.058;5.378;2023-07-08T10:21:08;8.20;;;5.30;;
44228;SDS011;29904;51.058;5.378;2023-07-08T10:26:27;8.07;;;5.47;;
44228;SDS011;29904;51.058;5.378;2023-07-08T10:32:02;8.80;;;4.90;;
44228;SDS011;29904;51.058;5.378;2023-07-08T10:56:28;9.07;;;5.40;;
44228;SDS011;29904;51.058;5.378;2023-07-08T11:08:15;8.50;;;5.28;;
44228;SDS011;29904;51.058;5.378;2023-07-08T11:10:59;8.32;;;5.03;;
44228;SDS011;29904;51.058;5.378;2023-07-08T11:13:58;9.57;;;5.38;;
44228;SDS011;29904;51.058;5.378;2023-07-08T11:16:37;8.07;;;5.43;;
44228;SDS011;29904;51.058;5.378;2023-07-08T11:19:11;9.10;;;5.28;;
44228;SDS011;29904;51.058;5.378;2023-07-08T11:21:49;6.85;;;4.70;;
44228;SDS011;29904;51.058;5.378;2023-07-08T11:24:22;7.47;;;4.97;;
44228;SDS011;29904;51.058;5.378;2023-07-08T11:27:00;10.07;;;5.18;;
44228;SDS011;29904;51.058;5.378;2023-07-08T11:29:39;7.18;;;5.05;;
44228;SDS011;29904;51.058;5.378;2023-07-08T11:32:11;6.87;;;4.70;;
44228;SDS011;29904;51.058;5.378;2023-07-08T11:34:39;8.23;;;5.20;;
44228;SDS011;29904;51.058;5.378;2023-07-08T11:37:07;7.13;;;4.60;;
44228;SDS011;29904;51.058;5.378;2023-07-08T11:39:44;7.35;;;4.38;;
44228;SDS011;29904;51.058;5.378;2023-07-08T11:42:22;7.85;;;5.07;;
44228;SDS011;29904;51.058;5.378;2023-07-08T11:47:45;8.60;;;5.17;;
44228;SDS011;29904;51.058;5.378;2023-07-08T11:52:54;8.13;;;4.45;;
44228;SDS011;29904;51.058;5.378;2023-07-08T11:55:25;9.95;;;4.72;;
44228;SDS011;29904;51.058;5.378;2023-07-08T11:57:59;7.53;;;4.15;;
44228;SDS011;29904;51.058;5.378;2023-07-08T12:00:26;6.68;;;4.18;;
44228;SDS011;29904;51.058;5.378;2023-07-08T12:02:57;8.55;;;4.65;;
44228;SDS011;29904;51.058;5.378;2023-07-08T12:05:32;6.20;;;4.10;;
44228;SDS011;29904;51.058;5.378;2023-07-08T12:08:00;6.50;;;4.22;;
44228;SDS011;29904;51.058;5.378;2023-07-08T12:10:35;7.07;;;4.20;;
44228;SDS011;29904;51.058;5.378;2023-07-08T12:13:09;9.50;;;4.85;;
44228;SDS011;29904;51.058;5.378;2023-07-08T12:15:39;6.78;;;4.43;;
44228;SDS011;29904;51.058;5.378;2023-07-08T12:20:53;7.97;;;4.70;;
44228;SDS011;29904;51.058;5.378;2023-07-08T12:23:23;6.55;;;4.40;;
44228;SDS011;29904;51.058;5.378;2023-07-08T12:25:50;6.90;;;4.10;;
44228;SDS011;29904;51.058;5.378;2023-07-08T12:28:17;6.53;;;4.10;;
44228;SDS011;29904;51.058;5.378;2023-07-08T12:30:44;7.22;;;4.00;;
44228;SDS011;29904;51.058;5.378;2023-07-08T12:33:15;6.55;;;4.07;;
44228;SDS011;29904;51.058;5.378;2023-07-08T12:35:56;8.05;;;4.45;;
44228;SDS011;29904;51.058;5.378;2023-07-08T12:41:22;6.63;;;4.70;;
44228;SDS011;29904;51.058;5.378;2023-07-08T12:43:49;7.10;;;4.33;;
44228;SDS011;29904;51.058;5.378;2023-07-08T12:46:18;5.75;;;3.90;;
44228;SDS011;29904;51.058;5.378;2023-07-08T12:48:46;6.65;;;3.70;;
44228;SDS011;29904;51.058;5.378;2023-07-08T12:51:13;6.13;;;3.78;;
44228;SDS011;29904;51.058;5.378;2023-07-08T12:53:42;6.60;;;3.97;;
44228;SDS011;29904;51.058;5.378;2023-07-08T12:56:08;7.75;;;3.92;;
44228;SDS011;29904;51.058;5.378;2023-07-08T12:58:36;5.60;;;3.63;;
44228;SDS011;29904;51.058;5.378;2023-07-08T13:01:06;6.47;;;3.88;;
44228;SDS011;29904;51.058;5.378;2023-07-08T13:03:34;7.22;;;3.50;;
44228;SDS011;29904;51.058;5.378;2023-07-08T13:06:05;6.47;;;3.72;;
44228;SDS011;29904;51.058;5.378;2023-07-08T13:08:35;7.43;;;3.83;;
44228;SDS011;29904;51.058;5.378;2023-07-08T13:11:02;6.50;;;3.90;;
44228;SDS011;29904;51.058;5.378;2023-07-08T13:13:31;6.90;;;3.33;;
44228;SDS011;29904;51.058;5.378;2023-07-08T13:16:03;9.70;;;3.50;;
44228;SDS011;29904;51.058;5.378;2023-07-08T13:21:04;5.70;;;3.30;;
44228;SDS011;29904;51.058;5.378;2023-07-08T13:23:31;7.13;;;3.67;;
44228;SDS011;29904;51.058;5.378;2023-07-08T13:26:00;5.20;;;3.40;;
44228;SDS011;29904;51.058;5.378;2023-07-08T13:28:39;5.50;;;3.25;;
44228;SDS011;29904;51.058;5.378;2023-07-08T13:33:48;6.65;;;3.80;;
44228;SDS011;29904;51.058;5.378;2023-07-08T13:36:22;5.15;;;3.53;;
44228;SDS011;29904;51.058;5.378;2023-07-08T13:38:58;6.53;;;3.67;;
44228;SDS011;29904;51.058;5.378;2023-07-08T13:41:30;5.97;;;3.40;;
44228;SDS011;29904;51.058;5.378;2023-07-08T13:43:56;6.90;;;3.73;;
44228;SDS011;29904;51.058;5.378;2023-07-08T13:52:03;6.73;;;3.80;;
44228;SDS011;29904;51.058;5.378;2023-07-08T13:54:41;7.15;;;3.75;;
44228;SDS011;29904;51.058;5.378;2023-07-08T13:57:11;7.13;;;3.80;;
44228;SDS011;29904;51.058;5.378;2023-07-08T13:59:41;6.60;;;3.60;;
44228;SDS011;29904;51.058;5.378;2023-07-08T14:02:42;7.10;;;3.63;;
44228;SDS011;29904;51.058;5.378;2023-07-08T14:05:01;5.97;;;3.47;;
44228;SDS011;29904;51.058;5.378;2023-07-08T14:07:30;5.82;;;3.70;;
44228;SDS011;29904;51.058;5.378;2023-07-08T14:09:59;7.28;;;3.80;;
44228;SDS011;29904;51.058;5.378;2023-07-08T14:12:25;7.20;;;4.10;;
44228;SDS011;29904;51.058;5.378;2023-07-08T14:14:52;7.28;;;3.85;;
44228;SDS011;29904;51.058;5.378;2023-07-08T14:17:23;6.63;;;3.78;;
44228;SDS011;29904;51.058;5.378;2023-07-08T14:19:54;9.52;;;4.10;;
44228;SDS011;29904;51.058;5.378;2023-07-08T14:24:50;5.13;;;3.53;;
44228;SDS011;29904;51.058;5.378;2023-07-08T14:27:17;6.73;;;3.57;;
44228;SDS011;29904;51.058;5.378;2023-07-08T14:29:48;7.87;;;4.00;;
44228;SDS011;29904;51.058;5.378;2023-07-08T14:32:23;6.97;;;4.03;;
44228;SDS011;29904;51.058;5.378;2023-07-08T14:34:57;7.43;;;4.13;;
44228;SDS011;29904;51.058;5.378;2023-07-08T14:37:29;7.72;;;3.78;;
44228;SDS011;29904;51.058;5.378;2023-07-08T14:39:56;8.73;;;4.20;;
44228;SDS011;29904;51.058;5.378;2023-07-08T14:42:27;7.00;;;4.13;;
44228;SDS011;29904;51.058;5.378;2023-07-08T14:44:54;6.50;;;3.63;;
44228;SDS011;29904;51.058;5.378;2023-07-08T14:47:21;6.37;;;3.93;;
44228;SDS011;29904;51.058;5.378;2023-07-08T14:49:48;6.13;;;4.20;;
44228;SDS011;29904;51.058;5.378;2023-07-08T14:52:14;5.43;;;3.80;;
44228;SDS011;29904;51.058;5.378;2023-07-08T14:54:42;5.85;;;3.70;;
44228;SDS011;29904;51.058;5.378;2023-07-08T14:57:11;7.05;;;4.55;;
44228;SDS011;29904;51.058;5.378;2023-07-08T14:59:43;8.85;;;4.72;;
44228;SDS011;29904;51.058;5.378;2023-07-08T15:02:19;6.03;;;3.80;;
44228;SDS011;29904;51.058;5.378;2023-07-08T15:04:52;8.95;;;3.75;;
44228;SDS011;29904;51.058;5.378;2023-07-08T15:07:19;7.38;;;3.88;;
44228;SDS011;29904;51.058;5.378;2023-07-08T15:09:45;8.10;;;3.90;;
44228;SDS011;29904;51.058;5.378;2023-07-08T15:12:12;9.35;;;3.58;;
44228;SDS011;29904;51.058;5.378;2023-07-08T15:14:38;6.03;;;3.80;;
44228;SDS011;29904;51.058;5.378;2023-07-08T15:17:12;7.75;;;4.40;;
44228;SDS011;29904;51.058;5.378;2023-07-08T15:19:43;6.82;;;3.90;;
44228;SDS011;29904;51.058;5.378;2023-07-08T15:22:11;8.10;;;3.80;;
44228;SDS011;29904;51.058;5.378;2023-07-08T15:24:38;6.53;;;3.70;;
44228;SDS011;29904;51.058;5.378;2023-07-08T15:27:06;7.10;;;3.63;;
44228;SDS011;29904;51.058;5.378;2023-07-08T15:29:35;6.55;;;3.47;;
44228;SDS011;29904;51.058;5.378;2023-07-08T15:32:02;6.18;;;4.00;;
44228;SDS011;29904;51.058;5.378;2023-07-08T15:34:30;7.00;;;4.10;;
44228;SDS011;29904;51.058;5.378;2023-07-08T15:36:57;5.82;;;3.65;;
44228;SDS011;29904;51.058;5.378;2023-07-08T15:39:24;6.78;;;3.80;;
44228;SDS011;29904;51.058;5.378;2023-07-08T15:41:51;6.00;;;3.80;;
44228;SDS011;29904;51.058;5.378;2023-07-08T15:44:21;5.22;;;3.97;;
44228;SDS011;29904;51.058;5.378;2023-07-08T15:46:48;6.45;;;3.65;;
44228;SDS011;29904;51.058;5.378;2023-07-08T15:49:24;6.18;;;3.88;;
44228;SDS011;29904;51.058;5.378;2023-07-08T15:51:53;7.27;;;3.63;;
44228;SDS011;29904;51.058;5.378;2023-07-08T15:54:20;6.78;;;4.00;;
44228;SDS011;29904;51.058;5.378;2023-07-08T15:56:50;6.97;;;3.80;;
44228;SDS011;29904;51.058;5.378;2023-07-08T15:59:26;8.88;;;4.13;;
44228;SDS011;29904;51.058;5.378;2023-07-08T16:01:57;7.20;;;3.63;;
44228;SDS011;29904;51.058;5.378;2023-07-08T16:04:34;6.72;;;4.05;;
44228;SDS011;29904;51.058;5.378;2023-07-08T16:07:04;4.97;;;3.70;;
44228;SDS011;29904;51.058;5.378;2023-07-08T16:09:34;7.13;;;3.80;;
44228;SDS011;29904;51.058;5.378;2023-07-08T16:12:01;8.70;;;3.63;;
44228;SDS011;29904;51.058;5.378;2023-07-08T16:14:29;6.20;;;3.70;;
44228;SDS011;29904;51.058;5.378;2023-07-08T16:16:57;6.70;;;3.42;;
44228;SDS011;29904;51.058;5.378;2023-07-08T16:19:23;6.20;;;3.80;;